Time;durP1;ratioP1;P1;durP2;ratioP2;P2;SDS_P1;SDS_P2;PMS_P1;PMS_P2;Temp;Humidity;BMP_temperature;BMP_pressure;BME280_temperature;BME280_humidity;BME280_pressure;Samples;Min_cycle;Max_cycle;Signal;HPM_P1;HPM_P2
2023/02/13 00:01:06;;;;;;;28.38;11.00;;;;;;;7.06;100.00;102773.22;5013587;28;20034;-78
2023/02/13 00:03:32;;;;;;;30.55;11.95;;;;;;;7.08;100.00;102773.28;5017081;28;20045;-77
2023/02/13 00:05:58;;;;;;;25.80;11.55;;;;;;;7.08;100.00;102768.03;5009328;28;20070;-77
2023/02/13 00:08:23;;;;;;;26.17;12.20;;;;;;;7.11;100.00;102770.81;5011073;28;20045;-77
2023/02/13 00:10:48;;;;;;;28.23;11.13;;;;;;;7.09;100.00;102769.84;5009432;28;20034;-77
2023/02/13 00:13:14;;;;;;;29.08;12.20;;;;;;;7.08;100.00;102778.56;5011261;28;20084;-77
2023/02/13 00:15:39;;;;;;;23.80;10.63;;;;;;;7.09;100.00;102775.09;5009975;28;20038;-77
2023/02/13 00:18:05;;;;;;;26.42;11.88;;;;;;;7.10;100.00;102767.28;5020789;28;20523;-77
2023/02/13 00:20:30;;;;;;;26.38;10.65;;;;;;;7.14;100.00;102765.69;5018174;28;20063;-77
2023/02/13 00:22:57;;;;;;;29.88;12.48;;;;;;;7.13;100.00;102764.78;5013677;28;20067;-78
2023/02/13 00:25:23;;;;;;;23.42;10.75;;;;;;;7.11;100.00;102768.19;5031598;28;20493;-78
2023/02/13 00:27:50;;;;;;;26.10;11.23;;;;;;;7.14;100.00;102769.19;5015633;28;20050;-78
2023/02/13 00:30:15;;;;;;;29.98;11.82;;;;;;;7.13;100.00;102771.78;5020554;28;20073;-77
2023/02/13 00:32:41;;;;;;;24.80;11.52;;;;;;;7.09;100.00;102767.19;5014302;28;20049;-77
2023/02/13 00:35:06;;;;;;;25.08;11.10;;;;;;;7.09;100.00;102761.94;5019342;28;20033;-77
2023/02/13 00:37:32;;;;;;;29.90;12.40;;;;;;;7.11;100.00;102762.94;5015631;28;20040;-77
2023/02/13 00:39:58;;;;;;;26.13;11.93;;;;;;;7.11;100.00;102770.81;5019412;28;20101;-77
2023/02/13 00:42:25;;;;;;;28.42;12.57;;;;;;;7.12;100.00;102762.06;5018295;28;20038;-78
2023/02/13 00:44:51;;;;;;;25.15;11.60;;;;;;;7.06;100.00;102759.19;5021124;28;20393;-77
2023/02/13 00:47:17;;;;;;;27.80;11.85;;;;;;;7.08;100.00;102768.03;5031327;28;20040;-78
2023/02/13 00:49:42;;;;;;;31.02;12.77;;;;;;;7.01;100.00;102762.50;5022402;28;20034;-77
2023/02/13 00:52:08;;;;;;;24.45;11.95;;;;;;;6.95;100.00;102763.97;5016380;28;20031;-77
2023/02/13 00:54:33;;;;;;;26.35;12.15;;;;;;;6.98;100.00;102762.38;5017783;28;20045;-77
2023/02/13 00:56:58;;;;;;;26.40;10.85;;;;;;;6.94;100.00;102767.41;5015038;28;20049;-77
2023/02/13 00:59:24;;;;;;;25.55;12.55;;;;;;;6.93;100.00;102761.28;5018854;28;20033;-76
2023/02/13 01:01:49;;;;;;;27.80;13.18;;;;;;;6.93;100.00;102761.28;5015957;28;20088;-78
2023/02/13 01:04:14;;;;;;;25.88;11.77;;;;;;;6.96;100.00;102758.78;5018803;28;20030;-78
2023/02/13 01:06:40;;;;;;;27.58;12.02;;;;;;;6.94;100.00;102760.47;5016341;28;20077;-78
2023/02/13 01:09:06;;;;;;;25.75;11.77;;;;;;;6.98;100.00;102751.88;5020921;28;20034;-77
2023/02/13 01:11:31;;;;;;;27.73;11.98;;;;;;;7.05;100.00;102753.06;5033630;28;20096;-78
2023/02/13 01:13:59;;;;;;;29.40;12.70;;;;;;;7.11;100.00;102760.28;5032793;28;20058;-77
2023/02/13 01:16:25;;;;;;;25.92;11.77;;;;;;;7.09;100.00;102752.34;5014748;28;20034;-78
2023/02/13 01:18:51;;;;;;;26.67;11.80;;;;;;;7.10;100.00;102761.09;5017230;28;20038;-78
2023/02/13 01:21:19;;;;;;;26.25;12.20;;;;;;;7.14;100.00;102756.06;5019361;28;20026;-77
2023/02/13 01:23:46;;;;;;;24.65;11.55;;;;;;;7.17;100.00;102758.81;5033102;28;20030;-78
2023/02/13 01:26:20;;;;;;;28.20;12.35;;;;;;;7.22;100.00;102753.78;5023196;28;20069;-78
2023/02/13 01:28:46;;;;;;;28.92;12.55;;;;;;;7.20;100.00;102748.47;5028481;28;20088;-78
2023/02/13 01:31:12;;;;;;;28.20;12.60;;;;;;;7.19;100.00;102748.41;5017863;28;20046;-79
2023/02/13 01:33:37;;;;;;;22.20;10.95;;;;;;;7.21;100.00;102749.38;5019882;28;20053;-77
2023/02/13 01:36:08;;;;;;;22.20;10.55;;;;;;;7.26;100.00;102753.09;5017858;28;20394;-77
2023/02/13 01:38:35;;;;;;;24.67;11.30;;;;;;;7.25;100.00;102753.91;5033898;28;20030;-78
2023/02/13 01:41:01;;;;;;;27.63;12.02;;;;;;;7.26;100.00;102747.84;5015436;28;20038;-77
2023/02/13 01:43:52;;;;;;;23.33;10.77;;;;;;;7.26;100.00;102753.09;5039171;28;20105;-78
2023/02/13 01:46:27;;;;;;;26.40;12.23;;;;;;;7.25;100.00;102741.66;5016548;28;20031;-78
2023/02/13 01:48:58;;;;;;;25.15;11.48;;;;;;;7.23;100.00;102745.97;5031944;28;20405;-77
2023/02/13 01:51:29;;;;;;;21.70;10.48;;;;;;;7.21;100.00;102744.09;5015504;28;20034;-78
2023/02/13 01:54:31;;;;;;;25.55;11.93;;;;;;;7.23;100.00;102739.78;5013697;28;20094;-78
2023/02/13 01:57:06;;;;;;;23.77;11.13;;;;;;;7.22;100.00;102738.91;5030244;28;20042;-78
2023/02/13 01:59:36;;;;;;;27.75;12.38;;;;;;;7.24;100.00;102744.25;5013858;28;20046;-78
2023/02/13 02:02:02;;;;;;;28.25;13.05;;;;;;;7.22;100.00;102743.28;5017093;28;20038;-78
2023/02/13 02:04:32;;;;;;;25.52;11.88;;;;;;;7.21;100.00;102733.59;5031979;28;20386;-77
2023/02/13 02:07:03;;;;;;;25.55;12.55;;;;;;;7.18;100.00;102736.09;5028833;28;20097;-78
2023/02/13 02:09:36;;;;;;;25.98;11.85;;;;;;;7.14;100.00;102734.16;5033733;28;20072;-77
2023/02/13 02:12:08;;;;;;;24.15;11.90;;;;;;;7.12;100.00;102739.34;5015701;28;20049;-78
2023/02/13 02:14:38;;;;;;;26.92;12.27;;;;;;;7.14;100.00;102731.53;5030057;28;20113;-77
2023/02/13 02:17:06;;;;;;;29.83;13.57;;;;;;;7.20;100.00;102737.03;5011683;28;20038;-78
2023/02/13 02:19:54;;;;;;;30.88;13.55;;;;;;;7.20;100.00;102727.47;5032110;28;20295;-79
2023/02/13 02:22:40;;;;;;;27.13;11.82;;;;;;;7.20;100.00;102734.41;5020004;28;20057;-78
2023/02/13 02:25:40;;;;;;;24.65;11.68;;;;;;;7.23;100.00;102730.22;5029293;28;20049;-78
2023/02/13 02:28:46;;;;;;;26.92;13.43;;;;;;;7.27;100.00;102731.22;5032254;28;20041;-78
2023/02/13 02:31:24;;;;;;;26.10;11.95;;;;;;;7.24;100.00;102733.72;5013156;28;20042;-78
2023/02/13 02:34:08;;;;;;;28.30;13.60;;;;;;;7.24;100.00;102739.88;5012862;28;20030;-78
2023/02/13 02:37:00;;;;;;;30.90;14.40;;;;;;;7.25;100.00;102735.50;5028865;28;20061;-78
2023/02/13 02:40:00;;;;;;;26.45;11.93;;;;;;;7.28;100.00;102735.63;5030546;28;20034;-77
2023/02/13 02:42:51;;;;;;;31.17;12.63;;;;;;;7.30;100.00;102733.97;5030003;28;20042;-78
2023/02/13 02:45:42;;;;;;;32.47;14.95;;;;;;;7.34;100.00;102735.91;5011686;28;20053;-78
2023/02/13 02:51:38;;;;;;;27.55;11.80;;;;;;;7.34;100.00;102732.41;5027975;28;20042;-77
2023/02/13 02:57:04;;;;;;;31.52;13.85;;;;;;;7.34;100.00;102741.19;5026942;28;20165;-78
2023/02/13 03:07:46;;;;;;;27.00;12.10;;;;;;;7.32;100.00;102737.56;5017315;28;20037;-78
2023/02/13 03:13:19;;;;;;;29.10;13.15;;;;;;;7.32;100.00;102742.84;5010976;28;20038;-78
2023/02/13 03:22:22;;;;;;;25.20;12.25;;;;;;;7.37;100.00;102743.94;4987646;28;20083;-77
2023/02/13 03:25:12;;;;;;;23.02;11.93;;;;;;;7.44;100.00;102745.06;4993615;28;20049;-77
2023/02/13 03:30:59;;;;;;;24.65;12.00;;;;;;;7.47;100.00;102746.09;5011147;28;20051;-77
2023/02/13 03:33:45;;;;;;;30.05;13.95;;;;;;;7.47;100.00;102743.47;5010029;28;20030;-78
2023/02/13 03:39:47;;;;;;;24.33;12.65;;;;;;;7.47;100.00;102742.59;5010431;28;20030;-78
2023/02/13 03:42:34;;;;;;;28.33;13.18;;;;;;;7.47;100.00;102740.84;5012581;28;20089;-78
2023/02/13 03:47:55;;;;;;;24.63;11.63;;;;;;;7.36;100.00;102755.28;5016536;28;20049;-78
2023/02/13 03:50:21;;;;;;;31.25;14.07;;;;;;;7.35;100.00;102744.69;5013767;28;20034;-77
2023/02/13 03:53:00;;;;;;;36.38;16.48;;;;;;;7.32;100.00;102744.56;5015314;28;20038;-79
2023/02/13 04:01:14;;;;;;;29.75;13.55;;;;;;;7.15;100.00;102750.00;5014669;28;20505;-78
2023/02/13 04:03:49;;;;;;;30.20;15.07;;;;;;;7.14;100.00;102745.56;5015324;28;20045;-77
2023/02/13 04:06:20;;;;;;;30.80;13.25;;;;;;;7.09;100.00;102757.59;5015068;28;20073;-78
2023/02/13 04:08:45;;;;;;;26.73;14.43;;;;;;;7.06;100.00;102759.19;5011865;28;20037;-78
2023/02/13 04:11:20;;;;;;;30.73;15.63;;;;;;;7.09;100.00;102749.72;5013738;28;20033;-78
2023/02/13 04:13:56;;;;;;;28.40;14.95;;;;;;;7.07;100.00;102748.75;5031676;23;20879;-77
2023/02/13 04:16:37;;;;;;;34.95;15.70;;;;;;;6.97;100.00;102746.56;4998692;28;20422;-77
2023/02/13 04:19:05;;;;;;;27.42;14.57;;;;;;;6.98;100.00;102750.97;5002281;28;20085;-77
2023/02/13 04:21:34;;;;;;;31.45;15.95;;;;;;;6.93;100.00;102745.53;4999939;28;20060;-77
2023/02/13 04:23:59;;;;;;;29.40;15.32;;;;;;;6.95;100.00;102754.38;5004677;28;20504;-77
2023/02/13 04:26:31;;;;;;;26.95;15.05;;;;;;;6.96;100.00;102748.28;4998701;28;20061;-77
2023/02/13 04:28:56;;;;;;;35.38;17.13;;;;;;;6.88;100.00;102754.91;5003195;28;20033;-77
2023/02/13 04:31:22;;;;;;;40.65;17.58;;;;;;;6.88;100.00;102756.66;5007533;28;20056;-77
2023/02/13 04:33:47;;;;;;;29.30;15.18;;;;;;;6.87;100.00;102747.00;5002033;28;20033;-77
2023/02/13 04:36:12;;;;;;;34.30;15.70;;;;;;;6.91;100.00;102749.81;4999800;28;20125;-77
2023/02/13 04:38:38;;;;;;;31.02;16.33;;;;;;;6.86;100.00;102746.06;5001957;28;20034;-77
2023/02/13 04:41:03;;;;;;;35.40;16.02;;;;;;;6.89;100.00;102747.94;5002962;28;20492;-77
2023/02/13 04:43:28;;;;;;;32.83;17.25;;;;;;;6.88;100.00;102743.53;5000426;28;20377;-77
2023/02/13 04:45:54;;;;;;;33.65;15.57;;;;;;;6.89;100.00;102737.44;5001599;28;20049;-77
2023/02/13 04:48:19;;;;;;;33.47;16.13;;;;;;;6.92;100.00;102741.13;5001623;28;20042;-77
2023/02/13 04:50:44;;;;;;;36.33;15.93;;;;;;;6.88;100.00;102741.78;5001858;28;20052;-77
2023/02/13 04:53:10;;;;;;;32.50;15.73;;;;;;;6.86;100.00;102735.56;5004696;28;20042;-77
2023/02/13 04:55:35;;;;;;;33.45;16.20;;;;;;;6.79;100.00;102736.16;5003684;28;20052;-77
2023/02/13 04:58:00;;;;;;;33.42;17.17;;;;;;;6.77;100.00;102743.06;5001177;28;20046;-77
2023/02/13 05:00:27;;;;;;;34.97;16.40;;;;;;;6.69;100.00;102741.81;5004026;28;20056;-77
2023/02/13 05:02:52;;;;;;;31.27;15.32;;;;;;;6.65;100.00;102739.88;5011194;28;20038;-77
2023/02/13 05:05:18;;;;;;;26.63;14.40;;;;;;;6.69;100.00;102747.06;5006735;28;20477;-77
2023/02/13 05:07:44;;;;;;;29.20;14.80;;;;;;;6.66;100.00;102747.81;5007726;28;20420;-77
2023/02/13 05:10:11;;;;;;;35.05;16.58;;;;;;;6.66;100.00;102750.44;5003842;28;20057;-77
2023/02/13 05:12:36;;;;;;;28.45;14.05;;;;;;;6.66;100.00;102746.94;5008490;28;20378;-77
2023/02/13 05:15:01;;;;;;;31.25;14.32;;;;;;;6.68;100.00;102743.53;5003330;28;20061;-77
2023/02/13 05:17:27;;;;;;;28.08;14.82;;;;;;;6.75;100.00;102744.69;5005181;28;20046;-77
2023/02/13 05:19:52;;;;;;;32.97;16.85;;;;;;;6.67;100.00;102751.34;5004990;28;20034;-77
2023/02/13 05:25:02;;;;;;;33.50;15.30;;;;;;;6.63;100.00;102755.56;5005789;28;20485;-77
2023/02/13 05:27:27;;;;;;;40.58;19.65;;;;;;;6.67;100.00;102753.97;5003911;28;20436;-77
2023/02/13 05:29:53;;;;;;;36.90;17.45;;;;;;;6.70;100.00;102757.59;5000242;28;20022;-77
2023/02/13 05:32:18;;;;;;;35.90;16.00;;;;;;;6.72;100.00;102755.97;5005161;28;20037;-78
2023/02/13 05:34:43;;;;;;;32.03;16.08;;;;;;;6.73;100.00;102749.91;5006788;28;20410;-77
2023/02/13 05:37:09;;;;;;;25.40;13.90;;;;;;;6.68;100.00;102756.66;5005111;28;20408;-77
2023/02/13 05:39:34;;;;;;;26.83;14.00;;;;;;;6.65;100.00;102760.84;5004810;28;20030;-77
2023/02/13 05:41:59;;;;;;;32.33;15.10;;;;;;;6.65;100.00;102759.13;5000624;28;20045;-77
2023/02/13 05:44:25;;;;;;;28.70;14.15;;;;;;;6.66;100.00;102747.81;5009921;28;20030;-78
2023/02/13 05:46:52;;;;;;;29.95;13.77;;;;;;;6.71;100.00;102755.91;5003373;28;20045;-77
2023/02/13 05:49:17;;;;;;;25.90;13.95;;;;;;;6.68;100.00;102755.75;5007697;28;20504;-78
2023/02/13 05:51:43;;;;;;;29.33;14.02;;;;;;;6.65;100.00;102750.38;5004007;28;20072;-78
2023/02/13 05:54:08;;;;;;;41.88;15.70;;;;;;;6.65;100.00;102750.38;5002756;28;20077;-78
2023/02/13 05:56:34;;;;;;;38.88;15.68;;;;;;;6.57;100.00;102747.38;5010404;28;20037;-78
2023/02/13 05:58:59;;;;;;;38.10;16.20;;;;;;;6.61;100.00;102749.34;5000597;28;20037;-77
2023/02/13 06:01:25;;;;;;;31.05;15.77;;;;;;;6.71;100.00;102743.69;5009621;28;20132;-77
2023/02/13 06:03:50;;;;;;;40.53;17.25;;;;;;;6.65;100.00;102747.75;5005836;28;20038;-77
2023/02/13 06:06:16;;;;;;;29.85;15.98;;;;;;;6.62;100.00;102753.75;5011386;28;20042;-78
2023/02/13 06:08:41;;;;;;;28.30;13.45;;;;;;;6.64;100.00;102752.09;5003046;28;20029;-77
2023/02/13 06:11:07;;;;;;;26.17;15.00;;;;;;;6.72;100.00;102749.81;5005637;28;20404;-77
2023/02/13 06:13:33;;;;;;;32.10;14.48;;;;;;;6.70;100.00;102756.72;5011171;28;20416;-78
2023/02/13 06:15:58;;;;;;;30.95;14.63;;;;;;;6.67;100.00;102762.72;5001224;28;20041;-77
2023/02/13 06:18:23;;;;;;;27.90;13.23;;;;;;;6.66;100.00;102760.94;5004835;28;20041;-77
2023/02/13 06:20:49;;;;;;;27.40;13.35;;;;;;;6.67;100.00;102759.22;5009178;28;20034;-77
2023/02/13 06:23:14;;;;;;;32.03;12.85;;;;;;;6.61;100.00;102764.19;5007739;28;20092;-77
2023/02/13 06:25:40;;;;;;;24.85;12.38;;;;;;;6.61;100.00;102769.44;5004339;28;20512;-77
2023/02/13 06:28:06;;;;;;;30.88;17.42;;;;;;;6.65;100.00;102761.75;5001151;28;20038;-78
2023/02/13 06:30:32;;;;;;;31.50;16.60;;;;;;;6.65;100.00;102756.50;5006788;28;20038;-78
2023/02/13 06:32:58;;;;;;;28.17;16.20;;;;;;;6.69;100.00;102758.44;5001250;28;20459;-78
2023/02/13 06:35:23;;;;;;;28.05;17.83;;;;;;;6.69;100.00;102760.19;5010431;28;20033;-77
2023/02/13 06:37:49;;;;;;;30.88;17.90;;;;;;;6.57;100.00;102763.13;5003238;28;20026;-75
2023/02/13 06:40:15;;;;;;;31.92;17.90;;;;;;;6.55;100.00;102768.31;5003694;28;20404;-75
2023/02/13 06:42:41;;;;;;;28.65;18.25;;;;;;;6.55;100.00;102768.31;5009350;28;20070;-75
2023/02/13 06:45:07;;;;;;;35.20;18.20;;;;;;;6.59;100.00;102778.13;5003484;28;20470;-75
2023/02/13 06:47:32;;;;;;;26.67;16.55;;;;;;;6.59;100.00;102782.47;5000480;28;20120;-75
2023/02/13 06:49:58;;;;;;;28.58;18.17;;;;;;;6.60;100.00;102789.50;5004604;28;20124;-75
2023/02/13 06:52:23;;;;;;;30.73;18.30;;;;;;;6.53;100.00;102788.34;5002041;28;20062;-75
2023/02/13 06:54:48;;;;;;;32.13;18.30;;;;;;;6.57;100.00;102797.25;5005769;28;20072;-75
2023/02/13 06:57:14;;;;;;;34.60;18.88;;;;;;;6.57;100.00;102799.88;5001323;28;20169;-75
2023/02/13 06:59:40;;;;;;;32.67;17.20;;;;;;;6.56;100.00;102796.34;5003509;28;20034;-75
2023/02/13 07:02:05;;;;;;;26.88;16.63;;;;;;;6.61;100.00;102800.91;5005196;28;20029;-75
2023/02/13 07:04:30;;;;;;;28.90;17.45;;;;;;;6.66;100.00;102799.41;5002085;28;20035;-75
2023/02/13 07:06:56;;;;;;;30.75;16.67;;;;;;;6.67;100.00;102803.81;5001804;28;20057;-75
2023/02/13 07:09:22;;;;;;;33.72;20.05;;;;;;;6.64;100.00;102803.69;5004698;28;20044;-75
2023/02/13 07:11:47;;;;;;;31.40;19.00;;;;;;;6.67;100.00;102801.19;5001983;28;20623;-75
2023/02/13 07:14:13;;;;;;;30.88;18.13;;;;;;;6.71;100.00;102811.91;5003476;28;20037;-75
2023/02/13 07:16:38;;;;;;;29.25;16.20;;;;;;;6.79;100.00;102807.03;4999133;28;20504;-75
2023/02/13 07:19:03;;;;;;;30.02;17.10;;;;;;;6.80;100.00;102808.81;5000912;28;20481;-75
2023/02/13 07:21:29;;;;;;;28.20;16.50;;;;;;;6.82;100.00;102809.78;5001554;28;20056;-75
2023/02/13 07:23:54;;;;;;;29.05;16.50;;;;;;;6.80;100.00;102814.03;5002491;28;20038;-75
2023/02/13 07:26:19;;;;;;;31.85;17.63;;;;;;;6.83;100.00;102815.91;5001000;28;20042;-75
2023/02/13 07:28:45;;;;;;;36.17;18.63;;;;;;;6.83;100.00;102819.44;5003568;28;20056;-75
2023/02/13 07:31:10;;;;;;;30.30;16.13;;;;;;;6.80;100.00;102819.28;5002092;28;20038;-75
2023/02/13 07:33:36;;;;;;;30.08;16.08;;;;;;;6.77;100.00;102813.91;5008451;28;20038;-75
2023/02/13 07:36:04;;;;;;;31.33;16.88;;;;;;;6.81;100.00;102815.84;5003192;28;20052;-75
2023/02/13 07:38:30;;;;;;;30.20;17.52;;;;;;;6.81;100.00;102821.09;5004270;28;20516;-75
2023/02/13 07:41:00;;;;;;;41.60;17.95;;;;;;;6.81;100.00;102815.84;5003141;28;20045;-75
2023/02/13 07:43:26;;;;;;;28.65;17.50;;;;;;;6.82;100.00;102816.75;5003001;28;20096;-75
2023/02/13 07:45:56;;;;;;;30.30;16.38;;;;;;;6.75;100.00;102811.22;4996600;28;20121;-75
2023/02/13 07:48:22;;;;;;;39.75;20.45;;;;;;;6.78;100.00;102818.31;5003493;28;20500;-75
2023/02/13 07:50:48;;;;;;;34.33;17.80;;;;;;;6.83;100.00;102818.53;5004983;28;20041;-75
2023/02/13 07:53:13;;;;;;;35.92;18.33;;;;;;;6.79;100.00;102823.66;5005630;28;20057;-75
2023/02/13 07:55:38;;;;;;;34.42;18.30;;;;;;;6.73;100.00;102812.88;5004627;28;20067;-75
2023/02/13 07:58:04;;;;;;;33.00;18.52;;;;;;;6.84;100.00;102818.63;5003954;28;20038;-75
2023/02/13 08:00:30;;;;;;;33.03;18.85;;;;;;;6.87;100.00;102826.63;5006292;28;20042;-75
2023/02/13 08:02:58;;;;;;;42.05;20.13;;;;;;;6.90;100.00;102823.25;5002108;28;20042;-75
2023/02/13 08:05:24;;;;;;;38.85;20.15;;;;;;;6.86;100.00;102829.19;5004292;28;20113;-75
2023/02/13 08:07:49;;;;;;;36.50;19.25;;;;;;;6.86;100.00;102823.94;5001379;28;20112;-75
2023/02/13 08:12:59;;;;;;;31.60;17.23;;;;;;;6.89;100.00;102830.22;5004722;28;20508;-75
2023/02/13 08:15:24;;;;;;;42.50;19.98;;;;;;;6.85;100.00;102830.91;5003887;28;20053;-75
2023/02/13 08:17:50;;;;;;;38.40;20.25;;;;;;;6.88;100.00;102831.03;5005341;28;20052;-75
2023/02/13 08:20:15;;;;;;;35.15;18.67;;;;;;;6.90;100.00;102829.38;5000534;28;20034;-75
2023/02/13 08:22:40;;;;;;;41.17;18.73;;;;;;;6.90;100.00;102826.78;5004238;28;20591;-75
2023/02/13 08:25:06;;;;;;;40.10;18.50;;;;;;;6.92;100.00;102834.72;5000849;28;20059;-75
2023/02/13 08:27:32;;;;;;;40.40;19.05;;;;;;;6.85;100.00;102833.53;5001004;28;20052;-75
2023/02/13 08:29:58;;;;;;;32.10;18.23;;;;;;;6.85;100.00;102828.28;5000872;28;20042;-75
2023/02/13 08:32:24;;;;;;;38.30;19.02;;;;;;;6.95;100.00;102825.25;5001021;28;20065;-75
2023/02/13 08:34:50;;;;;;;35.38;18.58;;;;;;;6.94;100.00;102833.03;5005180;28;20471;-75
2023/02/13 08:37:16;;;;;;;39.80;18.20;;;;;;;6.93;100.00;102821.66;5005181;28;20122;-75
2023/02/13 08:39:41;;;;;;;47.03;20.80;;;;;;;7.00;100.00;102825.47;5004645;28;20038;-75
2023/02/13 08:42:07;;;;;;;33.58;18.35;;;;;;;7.06;100.00;102817.84;5008773;28;20026;-75
2023/02/13 08:44:32;;;;;;;36.50;18.80;;;;;;;7.04;100.00;102827.38;5006624;28;20034;-75
2023/02/13 08:46:59;;;;;;;34.55;18.63;;;;;;;7.11;100.00;102824.22;5002187;28;20064;-75
2023/02/13 08:49:25;;;;;;;38.78;17.55;;;;;;;7.15;100.00;102833.13;5006676;28;20056;-75
2023/02/13 08:51:50;;;;;;;34.95;18.45;;;;;;;7.05;100.00;102841.41;5003784;28;20042;-75
2023/02/13 08:54:15;;;;;;;30.50;16.55;;;;;;;7.10;100.00;102834.63;5006554;28;20058;-75
2023/02/13 08:56:41;;;;;;;35.90;18.10;;;;;;;7.02;100.00;102840.47;5005120;28;20129;-75
2023/02/13 08:59:07;;;;;;;33.33;17.35;;;;;;;7.06;100.00;102845.84;5003303;28;20127;-75
2023/02/13 09:01:32;;;;;;;33.22;17.58;;;;;;;7.16;100.00;102835.81;5005994;28;20491;-75
2023/02/13 09:03:58;;;;;;;39.15;19.10;;;;;;;7.20;100.00;102843.03;5007842;28;20025;-75
2023/02/13 09:06:25;;;;;;;39.70;17.40;;;;;;;7.33;100.00;102847.06;5002372;28;20749;-75
2023/02/13 09:08:51;;;;;;;23.73;9.15;;;;;;;7.31;100.00;102842.56;5006276;28;20280;-75
2023/02/13 09:11:18;;;;;;;22.52;7.18;;;;;;;7.36;100.00;102854.19;5002304;28;20114;-75
2023/02/13 09:13:44;;;;;;;20.20;7.85;;;;;;;7.51;100.00;102848.72;5005699;28;20034;-75
2023/02/13 09:16:10;;;;;;;17.55;7.40;;;;;;;7.49;100.00;102840.75;5003420;28;20519;-75
2023/02/13 09:18:35;;;;;;;23.77;7.88;;;;;;;7.57;100.00;102849.88;5003363;28;20038;-75
2023/02/13 09:21:06;;;;;;;20.45;8.48;;;;;;;7.58;100.00;102842.91;5005372;28;20087;-75
2023/02/13 09:23:33;;;;;;;19.60;7.68;;;;;;;7.63;100.00;102847.50;5003683;28;20030;-75
2023/02/13 09:26:00;;;;;;;24.90;9.23;;;;;;;7.74;100.00;102839.19;5005394;28;20104;-75
2023/02/13 09:28:26;;;;;;;18.63;7.25;;;;;;;7.74;100.00;102844.44;5002828;28;20159;-75
2023/02/13 09:30:52;;;;;;;19.85;7.38;;;;;;;7.79;100.00;102842.91;5007716;28;20113;-75
2023/02/13 09:33:17;;;;;;;18.65;8.13;;;;;;;7.73;100.00;102840.94;5003488;28;20540;-75
2023/02/13 09:35:42;;;;;;;17.88;7.70;;;;;;;7.73;100.00;102843.56;5007249;28;20171;-75
2023/02/13 09:38:08;;;;;;;18.85;7.20;;;;;;;7.72;100.00;102852.25;5003304;28;20066;-75
2023/02/13 09:40:42;;;;;;;20.60;7.45;;;;;;;7.70;100.00;102843.41;5003016;28;20123;-75
2023/02/13 09:43:26;;;;;;;18.20;7.45;;;;;;;7.71;100.00;102839.97;5001793;28;20266;-75
2023/02/13 09:45:57;;;;;;;16.40;4.97;;;;;;;7.77;100.00;102839.31;5003675;28;20056;-75
2023/02/13 09:48:31;;;;;;;20.33;6.50;;;;;;;7.84;100.00;102839.63;5005292;28;20034;-75
2023/02/13 09:50:58;;;;;;;20.27;6.63;;;;;;;7.96;100.00;102844.50;5012751;28;20037;-74
2023/02/13 09:53:27;;;;;;;17.30;5.82;;;;;;;8.09;100.00;102845.91;5007582;28;20385;-75
2023/02/13 09:56:04;;;;;;;14.40;5.05;;;;;;;8.19;100.00;102848.06;5005265;28;20091;-75
2023/02/13 09:58:38;;;;;;;14.82;5.80;;;;;;;8.23;100.00;102850.00;5006716;28;20114;-75
2023/02/13 10:01:11;;;;;;;21.27;7.13;;;;;;;8.31;100.00;102847.69;5001779;28;20504;-75
2023/02/13 10:03:46;;;;;;;13.85;5.65;;;;;;;8.41;100.00;102848.97;5008711;28;20034;-75
2023/02/13 10:06:24;;;;;;;15.80;6.20;;;;;;;8.61;100.00;102845.38;5004796;28;20439;-75
2023/02/13 10:09:15;;;;;;;15.35;5.43;;;;;;;8.73;100.00;102843.25;5007766;28;20036;-75
2023/02/13 10:12:11;;;;;;;15.98;5.03;;;;;;;8.62;100.00;102838.38;5001859;28;20048;-75
2023/02/13 10:15:05;;;;;;;16.98;6.30;;;;;;;8.39;100.00;102848.00;5002062;28;20088;-75
2023/02/13 10:17:53;;;;;;;11.55;4.47;;;;;;;8.37;100.00;102841.78;5002878;28;20034;-75
2023/02/13 10:20:38;;;;;;;13.70;5.75;;;;;;;8.37;100.00;102842.66;5004976;28;20401;-75
2023/02/13 10:23:18;;;;;;;14.68;5.45;;;;;;;8.39;100.00;102845.38;5024857;23;20053;-71
2023/02/13 10:25:55;;;;;;;13.50;5.43;;;;;;;8.44;100.00;102833.31;4999663;28;20052;-71
2023/02/13 10:28:45;;;;;;;12.00;5.25;;;;;;;8.42;100.00;102841.16;5003546;28;20511;-71
2023/02/13 10:31:21;;;;;;;11.60;5.00;;;;;;;8.53;100.00;102839.81;4998174;28;20500;-71
2023/02/13 10:33:50;;;;;;;11.13;4.88;;;;;;;8.38;100.00;102836.56;4991037;28;20568;-71
2023/02/13 10:36:29;;;;;;;11.10;4.80;;;;;;;8.30;100.00;102830.09;4984266;28;20177;-71
2023/02/13 10:39:03;;;;;;;11.30;4.10;;;;;;;8.26;100.00;102831.72;4985090;28;20034;-71
2023/02/13 10:41:56;;;;;;;13.85;4.72;;;;;;;8.24;100.00;102830.75;4986847;28;20076;-71
2023/02/13 10:44:40;;;;;;;15.50;5.10;;;;;;;8.24;100.00;102827.22;4984855;28;20030;-71
2023/02/13 10:47:25;;;;;;;12.90;4.18;;;;;;;8.12;100.00;102824.97;4982414;28;20038;-71
2023/02/13 10:50:12;;;;;;;10.50;4.22;;;;;;;8.16;100.00;102815.50;4998086;28;20100;-71
2023/02/13 10:53:05;;;;;;;14.30;4.22;;;;;;;8.26;100.00;102815.94;4986750;28;20432;-71
2023/02/13 10:55:39;;;;;;;9.10;3.58;;;;;;;8.34;100.00;102811.88;4984890;28;20093;-71
2023/02/13 10:58:11;;;;;;;14.82;3.95;;;;;;;8.25;100.00;102806.25;4981526;28;20093;-71
2023/02/13 11:00:45;;;;;;;11.05;4.22;;;;;;;8.40;100.00;102799.81;4981787;28;20038;-71
2023/02/13 11:03:22;;;;;;;11.05;4.25;;;;;;;8.62;100.00;102804.16;4990777;28;20508;-71
2023/02/13 11:05:49;;;;;;;9.68;4.68;;;;;;;8.83;100.00;102804.06;4981213;28;20125;-71
2023/02/13 11:08:24;;;;;;;10.35;3.92;;;;;;;9.03;100.00;102803.09;4983790;28;20039;-71
2023/02/13 11:10:50;;;;;;;9.15;4.35;;;;;;;9.03;100.00;102792.53;4982960;28;20509;-71
2023/02/13 11:13:21;;;;;;;6.43;2.72;;;;;;;8.92;100.00;102791.25;4987630;28;20050;-71
2023/02/13 11:16:03;;;;;;;11.30;4.22;;;;;;;8.86;100.00;102797.22;4985983;28;20043;-71
2023/02/13 11:18:33;;;;;;;7.10;3.65;;;;;;;8.77;100.00;102791.59;4986856;28;20049;-71
2023/02/13 11:21:10;;;;;;;7.78;3.78;;;;;;;8.74;100.00;102784.47;4982056;28;20038;-71
2023/02/13 11:23:37;;;;;;;8.80;3.55;;;;;;;8.61;100.00;102790.13;4984093;28;20034;-71
2023/02/13 11:26:09;;;;;;;9.05;3.25;;;;;;;8.52;100.00;102781.88;4980384;28;20055;-71
2023/02/13 11:28:46;;;;;;;6.20;2.95;;;;;;;8.59;100.00;102788.25;4983291;28;20030;-71
2023/02/13 11:31:21;;;;;;;7.47;2.67;;;;;;;8.54;100.00;102789.00;4985063;28;20038;-71
2023/02/13 11:33:46;;;;;;;6.80;3.08;;;;;;;8.39;100.00;102788.41;4987153;28;20043;-71
2023/02/13 11:36:22;;;;;;;5.15;2.20;;;;;;;8.54;100.00;102786.38;4981850;28;20463;-71
2023/02/13 11:39:06;;;;;;;8.25;2.95;;;;;;;8.74;100.00;102784.47;4982041;28;20042;-71
2023/02/13 11:41:42;;;;;;;8.13;2.95;;;;;;;8.74;100.00;102781.84;4988498;28;20068;-71
2023/02/13 11:44:28;;;;;;;7.55;3.00;;;;;;;8.74;100.00;102779.19;4982485;28;20034;-71
2023/02/13 11:46:56;;;;;;;6.35;2.88;;;;;;;8.63;100.00;102782.28;4985737;28;20035;-71
2023/02/13 11:49:27;;;;;;;5.80;2.38;;;;;;;8.60;100.00;102783.06;4987654;28;20087;-71
2023/02/13 11:51:56;;;;;;;7.05;2.95;;;;;;;8.66;100.00;102777.13;4986134;28;20038;-71
2023/02/13 11:54:40;;;;;;;6.05;2.50;;;;;;;8.86;100.00;102777.88;4983061;28;20034;-71
2023/02/13 11:57:20;;;;;;;7.35;3.10;;;;;;;8.85;100.00;102778.69;4983323;28;20034;-71
2023/02/13 11:59:48;;;;;;;7.30;2.97;;;;;;;8.84;100.00;102776.94;4983946;28;20511;-71
2023/02/13 12:02:20;;;;;;;7.90;2.72;;;;;;;8.77;100.00;102770.53;4980714;28;20077;-71
2023/02/13 12:04:48;;;;;;;8.43;3.03;;;;;;;8.68;100.00;102768.44;4985783;28;20046;-71
2023/02/13 12:07:31;;;;;;;6.15;2.75;;;;;;;8.60;100.00;102767.28;4981739;28;20210;-71
2023/02/13 12:10:11;;;;;;;;;;;;;;;8.67;100.00;102771.94;4981986;28;20039;-71